createdAt,value
2023-05-14T00:00:30.110Z,13.00
2023-05-14T00:02:57.336Z,12.60
2023-05-14T00:05:24.748Z,13.40
2023-05-14T00:07:51.962Z,13.50
2023-05-14T00:10:20.733Z,13.60
2023-05-14T00:12:48.640Z,13.70
2023-05-14T00:15:16.170Z,12.80
2023-05-14T00:17:43.283Z,12.20
2023-05-14T00:20:12.252Z,12.60
2023-05-14T00:22:39.584Z,9.90
2023-05-14T00:25:07.302Z,9.70
2023-05-14T00:27:35.265Z,9.70
2023-05-14T00:30:02.661Z,10.70
2023-05-14T00:32:30.599Z,10.50
2023-05-14T00:34:57.822Z,10.60
2023-05-14T00:37:25.096Z,11.00
2023-05-14T00:39:52.331Z,11.40
2023-05-14T00:42:19.731Z,12.10
2023-05-14T00:44:46.855Z,9.20
2023-05-14T00:47:14.161Z,9.30
2023-05-14T00:49:41.345Z,9.90
2023-05-14T00:52:08.837Z,9.80
2023-05-14T00:54:36.651Z,9.50
2023-05-14T00:57:04.088Z,9.80
2023-05-14T00:59:31.468Z,9.90
2023-05-14T01:01:58.579Z,9.40
2023-05-14T01:04:25.774Z,12.00
2023-05-14T01:07:08.119Z,14.40
2023-05-14T01:09:46.373Z,17.70
2023-05-14T01:12:44.377Z,16.10
2023-05-14T01:15:15.482Z,20.70
2023-05-14T01:17:47.330Z,20.80
2023-05-14T01:20:14.783Z,20.10
2023-05-14T01:22:41.776Z,18.20
2023-05-14T01:25:09.963Z,18.70
2023-05-14T01:27:40.463Z,16.20
2023-05-14T01:30:37.665Z,17.40
2023-05-14T01:33:07.393Z,15.30
2023-05-14T01:35:35.408Z,15.80
2023-05-14T01:38:07.476Z,15.00
2023-05-14T01:40:35.060Z,15.10
2023-05-14T01:43:02.486Z,15.00
2023-05-14T01:45:30.320Z,15.60
2023-05-14T01:47:57.937Z,12.10
2023-05-14T01:50:25.186Z,12.00
2023-05-14T01:52:56.601Z,12.70
2023-05-14T01:55:26.978Z,13.40
2023-05-14T01:57:54.454Z,12.70
2023-05-14T02:00:23.395Z,12.00
2023-05-14T02:02:50.802Z,11.40
2023-05-14T02:05:18.384Z,10.90
2023-05-14T02:07:45.348Z,8.20
2023-05-14T02:10:12.348Z,8.50
2023-05-14T02:12:39.448Z,10.80
2023-05-14T02:15:09.121Z,13.20
2023-05-14T02:17:36.462Z,12.50
2023-05-14T02:20:04.339Z,13.50
2023-05-14T02:22:31.958Z,15.30
2023-05-14T02:24:59.013Z,12.80
2023-05-14T02:27:26.406Z,9.30
2023-05-14T02:29:53.541Z,9.80
2023-05-14T02:32:20.694Z,11.10
2023-05-14T02:34:47.805Z,10.20
2023-05-14T02:37:14.908Z,12.40
2023-05-14T02:39:42.124Z,13.80
2023-05-14T02:42:09.144Z,13.70
2023-05-14T02:44:36.763Z,12.80
2023-05-14T02:47:04.141Z,9.60
2023-05-14T02:49:31.425Z,9.50
2023-05-14T02:52:00.928Z,9.40
2023-05-14T02:54:27.999Z,9.50
2023-05-14T02:56:55.039Z,8.70
2023-05-14T02:59:24.433Z,8.40
2023-05-14T03:01:52.029Z,8.60
2023-05-14T03:04:19.510Z,9.30
2023-05-14T03:06:46.752Z,7.10
2023-05-14T03:09:14.418Z,7.80
2023-05-14T03:11:41.823Z,8.80
2023-05-14T03:14:09.424Z,13.60
2023-05-14T03:16:36.801Z,17.90
2023-05-14T03:19:04.125Z,17.80
2023-05-14T03:21:32.229Z,14.90
2023-05-14T03:23:59.324Z,12.60
2023-05-14T03:26:26.479Z,9.00
2023-05-14T03:28:53.558Z,8.60
2023-05-14T03:31:20.964Z,9.10
2023-05-14T03:33:48.033Z,9.50
2023-05-14T03:36:15.330Z,10.20
2023-05-14T03:38:42.300Z,10.00
2023-05-14T03:41:09.500Z,10.30
2023-05-14T03:43:36.776Z,11.00
2023-05-14T03:46:04.057Z,8.00
2023-05-14T03:48:31.648Z,8.00
2023-05-14T03:50:58.697Z,8.40
2023-05-14T03:53:25.754Z,8.00
2023-05-14T03:55:52.768Z,9.30
2023-05-14T03:58:20.314Z,7.50
2023-05-14T04:00:47.562Z,8.50
2023-05-14T04:03:14.980Z,9.80
2023-05-14T04:05:42.110Z,6.70
2023-05-14T04:08:09.267Z,7.00
2023-05-14T04:10:36.345Z,7.00
2023-05-14T04:13:03.379Z,8.60
2023-05-14T04:15:33.131Z,8.20
2023-05-14T04:18:00.312Z,8.30
2023-05-14T04:20:27.777Z,8.80
2023-05-14T04:22:54.802Z,9.40
2023-05-14T04:25:22.003Z,13.90
2023-05-14T04:27:49.656Z,11.60
2023-05-14T04:30:17.135Z,7.50
2023-05-14T04:32:44.652Z,10.00
2023-05-14T04:35:12.939Z,13.20
2023-05-14T04:37:40.654Z,12.50
2023-05-14T04:40:11.327Z,10.20
2023-05-14T04:42:39.005Z,9.10
2023-05-14T04:45:06.837Z,10.60
2023-05-14T04:47:34.123Z,11.20
2023-05-14T04:50:01.265Z,7.30
2023-05-14T04:52:30.169Z,6.60
2023-05-14T04:54:57.161Z,7.40
2023-05-14T04:57:24.315Z,10.70
2023-05-14T04:59:51.294Z,27.60
2023-05-14T05:02:18.445Z,11.50
2023-05-14T05:04:45.698Z,10.90
2023-05-14T05:07:13.412Z,16.70
2023-05-14T05:09:40.757Z,9.60
2023-05-14T05:12:08.033Z,18.90
2023-05-14T05:14:35.554Z,7.90
2023-05-14T05:17:02.769Z,8.30
2023-05-14T05:19:42.546Z,7.70
2023-05-14T05:22:11.130Z,7.50
2023-05-14T05:24:38.700Z,7.20
2023-05-14T05:27:06.169Z,6.90
2023-05-14T05:29:33.647Z,7.00
2023-05-14T05:32:00.806Z,7.10
2023-05-14T05:34:27.990Z,8.10
2023-05-14T05:36:55.166Z,8.90
2023-05-14T05:39:22.667Z,8.90
2023-05-14T05:41:49.673Z,9.10
2023-05-14T05:44:16.612Z,12.20
2023-05-14T05:46:43.609Z,12.30
2023-05-14T05:49:10.706Z,13.10
2023-05-14T05:51:37.822Z,13.20
2023-05-14T05:54:04.823Z,17.30
2023-05-14T05:56:32.044Z,16.80
2023-05-14T05:58:58.985Z,21.50
2023-05-14T06:01:26.810Z,41.20
2023-05-14T06:03:53.770Z,32.80
2023-05-14T06:06:21.802Z,77.30
2023-05-14T06:08:49.117Z,31.00
2023-05-14T06:11:17.052Z,19.90
2023-05-14T06:13:45.849Z,17.10
2023-05-14T06:16:13.734Z,13.80
2023-05-14T06:18:40.932Z,13.40
2023-05-14T06:21:07.912Z,9.50
2023-05-14T06:23:35.412Z,9.20
2023-05-14T06:26:02.389Z,6.50
2023-05-14T06:28:29.593Z,7.90
2023-05-14T06:30:56.581Z,10.60
2023-05-14T06:33:30.834Z,8.60
2023-05-14T06:36:04.747Z,6.10
2023-05-14T06:38:32.134Z,5.90
2023-05-14T06:40:59.180Z,4.90
2023-05-14T06:43:26.673Z,4.30
2023-05-14T06:45:54.046Z,4.70
2023-05-14T06:48:21.409Z,4.90
2023-05-14T06:50:49.865Z,5.10
2023-05-14T06:53:16.978Z,4.30
2023-05-14T06:55:43.984Z,5.70
2023-05-14T06:58:10.920Z,4.50
2023-05-14T07:00:38.233Z,4.80
2023-05-14T07:03:05.515Z,3.50
2023-05-14T07:05:33.105Z,4.10
2023-05-14T07:08:00.203Z,3.60
2023-05-14T07:10:27.292Z,8.30
2023-05-14T07:12:54.370Z,6.10
2023-05-14T07:15:21.590Z,4.30
2023-05-14T07:17:49.045Z,2.80
2023-05-14T07:20:16.192Z,3.80
2023-05-14T07:22:43.309Z,2.80
2023-05-14T07:25:10.399Z,3.90
2023-05-14T07:27:37.895Z,4.00
2023-05-14T07:30:05.450Z,4.30
2023-05-14T07:32:33.046Z,3.90
2023-05-14T07:35:00.201Z,3.20
2023-05-14T07:37:27.236Z,3.30
2023-05-14T07:39:56.397Z,2.80
2023-05-14T07:42:35.197Z,3.40
2023-05-14T07:45:04.018Z,3.20
2023-05-14T07:47:31.592Z,3.10
2023-05-14T07:49:58.973Z,2.70
2023-05-14T07:52:25.896Z,2.90
2023-05-14T08:05:59.970Z,4.60
2023-05-14T08:08:27.712Z,3.80
2023-05-14T08:10:54.980Z,3.00
2023-05-14T08:13:21.887Z,3.50
2023-05-14T08:15:48.971Z,2.90
2023-05-14T08:18:16.307Z,3.20
2023-05-14T08:20:43.356Z,3.60
2023-05-14T08:23:11.539Z,3.40
2023-05-14T08:25:38.850Z,5.00
2023-05-14T08:28:05.978Z,2.80
2023-05-14T08:30:33.418Z,2.70
2023-05-14T08:33:00.615Z,2.90
2023-05-14T08:35:27.909Z,3.80
2023-05-14T08:37:54.950Z,3.30
2023-05-14T08:40:22.173Z,3.20
2023-05-14T08:42:49.409Z,4.00
2023-05-14T08:45:25.805Z,3.40
2023-05-14T08:47:53.324Z,3.40
2023-05-14T08:50:22.698Z,3.40
2023-05-14T08:52:50.741Z,3.10
2023-05-14T08:55:17.682Z,2.80
2023-05-14T08:57:44.657Z,2.90
2023-05-14T09:00:12.516Z,3.40
2023-05-14T09:02:40.481Z,3.70
2023-05-14T09:05:09.313Z,5.40
2023-05-14T09:07:36.983Z,4.10
2023-05-14T09:10:04.885Z,3.10
2023-05-14T09:12:32.545Z,3.30
2023-05-14T09:14:59.519Z,4.00
2023-05-14T09:17:27.418Z,3.10
2023-05-14T09:19:54.496Z,2.80
2023-05-14T09:22:21.542Z,2.30
2023-05-14T09:25:09.552Z,2.50
2023-05-14T09:27:36.993Z,2.40
2023-05-14T09:30:13.946Z,2.60
2023-05-14T09:32:44.255Z,3.70
2023-05-14T09:37:52.479Z,2.30
2023-05-14T09:40:20.789Z,6.60
2023-05-14T09:42:51.456Z,4.50
2023-05-14T09:45:18.510Z,4.10
2023-05-14T09:47:46.045Z,4.00
2023-05-14T09:50:13.461Z,3.60
2023-05-14T09:52:41.350Z,3.70
2023-05-14T09:55:08.726Z,3.50
2023-05-14T09:57:36.034Z,2.60
2023-05-14T10:00:03.896Z,5.40
2023-05-14T10:02:38.695Z,5.60
2023-05-14T10:05:06.594Z,3.80
2023-05-14T10:07:37.310Z,2.40
2023-05-14T10:10:05.091Z,2.60
2023-05-14T10:12:34.578Z,2.80
2023-05-14T10:15:03.858Z,3.70
2023-05-14T10:17:32.486Z,3.20
2023-05-14T10:19:59.803Z,3.40
2023-05-14T10:22:30.968Z,2.60
2023-05-14T10:24:58.006Z,3.30
2023-05-14T10:27:25.048Z,2.50
2023-05-14T10:29:56.256Z,3.30
2023-05-14T10:32:26.651Z,3.40
2023-05-14T10:34:54.110Z,3.50
2023-05-14T10:37:22.889Z,3.10
2023-05-14T10:39:53.845Z,5.00
2023-05-14T10:42:21.939Z,3.10
2023-05-14T10:45:02.135Z,2.90
2023-05-14T10:47:29.494Z,2.20
2023-05-14T10:50:00.063Z,2.60
2023-05-14T10:52:27.180Z,2.90
2023-05-14T10:55:02.735Z,2.80
2023-05-14T10:57:31.714Z,2.80
2023-05-14T11:00:00.308Z,3.20
2023-05-14T11:02:34.865Z,2.20
2023-05-14T11:05:09.311Z,2.30
2023-05-14T11:07:38.664Z,2.90
2023-05-14T11:10:08.298Z,2.90
2023-05-14T11:12:37.644Z,3.50
2023-05-14T11:15:12.570Z,2.70
2023-05-14T11:17:41.063Z,3.00
2023-05-14T11:20:09.004Z,2.60
2023-05-14T11:22:37.814Z,2.80
2023-05-14T11:25:06.345Z,2.70
2023-05-14T11:27:34.574Z,2.80
2023-05-14T11:30:01.915Z,4.50
2023-05-14T11:32:29.263Z,4.30
2023-05-14T11:34:56.312Z,2.30
2023-05-14T11:37:23.598Z,2.30
2023-05-14T11:39:52.367Z,2.20
2023-05-14T11:42:19.813Z,6.60
2023-05-14T11:44:51.919Z,2.30
2023-05-14T11:47:22.310Z,10.90
2023-05-14T11:49:49.830Z,2.60
2023-05-14T11:54:49.816Z,2.70
2023-05-14T11:57:19.334Z,2.30
2023-05-14T11:59:46.905Z,2.80
2023-05-14T12:02:15.289Z,2.80
2023-05-14T12:04:42.995Z,3.40
2023-05-14T12:07:14.934Z,3.30
2023-05-14T12:09:49.288Z,2.40
2023-05-14T12:12:20.500Z,3.20
2023-05-14T12:14:47.780Z,3.90
2023-05-14T12:17:21.500Z,4.40
2023-05-14T12:19:50.407Z,4.40
2023-05-14T12:22:19.384Z,2.60
2023-05-14T12:24:56.184Z,2.60
2023-05-14T12:27:24.646Z,2.20
2023-05-14T12:30:20.077Z,2.40
2023-05-14T12:32:51.975Z,2.10
2023-05-14T12:35:19.225Z,2.00
2023-05-14T12:37:46.192Z,2.20
2023-05-14T12:40:13.449Z,2.50
2023-05-14T12:42:40.619Z,2.20
2023-05-14T12:45:08.734Z,5.00
2023-05-14T12:47:37.175Z,2.90
2023-05-14T12:50:04.946Z,2.20
2023-05-14T12:52:38.565Z,2.50
2023-05-14T12:55:07.792Z,2.50
2023-05-14T12:57:35.742Z,2.20
2023-05-14T13:00:06.752Z,3.50
2023-05-14T13:02:42.905Z,3.20
2023-05-14T13:05:11.795Z,3.00
2023-05-14T13:07:38.997Z,2.20
2023-05-14T13:10:06.703Z,2.10
2023-05-14T13:12:34.388Z,2.50
2023-05-14T13:15:01.706Z,2.70
2023-05-14T13:17:29.310Z,3.10
2023-05-14T13:19:56.601Z,2.70
2023-05-14T13:22:23.671Z,2.50
2023-05-14T13:24:50.649Z,2.60
2023-05-14T13:27:17.679Z,3.30
2023-05-14T13:29:44.710Z,2.80
2023-05-14T13:32:11.749Z,2.50
2023-05-14T13:34:38.790Z,2.40
2023-05-14T13:37:05.846Z,4.30
2023-05-14T13:39:35.338Z,2.60
2023-05-14T13:42:02.482Z,2.40
2023-05-14T13:44:29.751Z,2.50
2023-05-14T13:46:56.957Z,3.60
2023-05-14T13:49:23.959Z,2.40
2023-05-14T13:51:51.117Z,2.30
2023-05-14T13:54:18.044Z,3.40
2023-05-14T13:56:45.101Z,2.60
2023-05-14T13:59:12.157Z,2.00
2023-05-14T14:01:39.101Z,2.20
2023-05-14T14:04:06.148Z,2.20
2023-05-14T14:06:33.413Z,2.40
2023-05-14T14:09:00.449Z,2.00
2023-05-14T14:11:27.687Z,2.60
2023-05-14T14:13:55.236Z,3.10
2023-05-14T14:16:22.285Z,2.40
2023-05-14T14:18:49.298Z,2.30
2023-05-14T14:21:18.640Z,3.00
2023-05-14T14:23:48.439Z,2.60
2023-05-14T14:26:15.995Z,2.50
2023-05-14T14:28:43.181Z,1.90
2023-05-14T14:31:11.070Z,2.60
2023-05-14T14:33:38.130Z,2.90
2023-05-14T14:36:05.932Z,3.20
2023-05-14T14:38:33.188Z,2.70
2023-05-14T14:41:00.471Z,2.10
2023-05-14T14:43:27.518Z,2.30
2023-05-14T14:45:55.058Z,2.20
2023-05-14T14:48:27.139Z,3.00
2023-05-14T14:50:55.072Z,2.50
2023-05-14T14:53:22.670Z,2.40
2023-05-14T14:55:50.170Z,2.80
2023-05-14T14:58:18.500Z,4.00
2023-05-14T15:00:45.853Z,2.20
2023-05-14T15:03:15.063Z,2.40
2023-05-14T15:05:42.479Z,2.60
2023-05-14T15:08:10.554Z,2.70
2023-05-14T15:10:38.453Z,2.60
2023-05-14T15:13:06.433Z,2.40
2023-05-14T15:15:34.561Z,2.70
2023-05-14T15:18:02.473Z,2.80
2023-05-14T15:20:29.627Z,2.60
2023-05-14T15:22:57.095Z,2.40
2023-05-14T15:25:24.285Z,2.40
2023-05-14T15:27:51.604Z,2.10
2023-05-14T15:30:18.836Z,2.60
2023-05-14T15:32:46.820Z,2.80
2023-05-14T15:35:14.202Z,2.40
2023-05-14T15:37:43.545Z,2.50
2023-05-14T15:40:11.574Z,2.70
2023-05-14T15:42:40.068Z,2.70
2023-05-14T15:45:07.841Z,2.60
2023-05-14T15:47:35.311Z,3.00
2023-05-14T15:50:02.282Z,2.40
2023-05-14T15:52:29.485Z,2.70
2023-05-14T15:54:57.498Z,3.90
2023-05-14T15:57:24.655Z,2.80
2023-05-14T15:59:51.724Z,2.60
2023-05-14T16:02:19.009Z,2.40
2023-05-14T16:04:46.048Z,2.50
2023-05-14T16:07:13.397Z,2.80
2023-05-14T16:09:40.430Z,2.70
2023-05-14T16:12:08.000Z,2.80
2023-05-14T16:14:35.224Z,3.20
2023-05-14T16:17:02.220Z,2.90
2023-05-14T16:19:29.602Z,3.50
2023-05-14T16:21:56.566Z,2.80
2023-05-14T16:24:23.782Z,2.80
2023-05-14T16:26:50.798Z,2.70
2023-05-14T16:29:17.883Z,2.60
2023-05-14T16:31:44.989Z,2.60
2023-05-14T16:34:12.061Z,2.40
2023-05-14T16:36:39.237Z,2.60
2023-05-14T16:39:08.163Z,3.00
2023-05-14T16:41:36.099Z,2.30
2023-05-14T16:44:03.544Z,2.70
2023-05-14T16:46:31.365Z,3.10
2023-05-14T16:48:58.397Z,3.20
2023-05-14T16:51:25.416Z,3.10
2023-05-14T16:53:52.892Z,3.10
2023-05-14T16:56:21.483Z,3.00
2023-05-14T16:58:48.482Z,2.80
2023-05-14T17:01:15.848Z,3.30
2023-05-14T17:03:43.607Z,3.30
2023-05-14T17:06:10.640Z,3.00
2023-05-14T17:08:38.095Z,2.90
2023-05-14T17:11:05.979Z,2.80
2023-05-14T17:13:33.492Z,3.70
2023-05-14T17:16:00.965Z,3.00
2023-05-14T17:18:28.485Z,3.40
2023-05-14T17:20:55.867Z,2.90
2023-05-14T17:23:23.135Z,4.40
2023-05-14T17:25:50.071Z,4.20
2023-05-14T17:28:17.166Z,2.90
2023-05-14T17:30:44.317Z,3.10
2023-05-14T17:33:11.848Z,4.10
2023-05-14T17:35:39.132Z,3.70
2023-05-14T17:38:06.408Z,3.90
2023-05-14T17:40:34.300Z,5.20
2023-05-14T17:43:01.512Z,5.90
2023-05-14T17:45:32.190Z,5.80
2023-05-14T17:48:03.659Z,6.50
2023-05-14T17:50:31.174Z,4.00
2023-05-14T17:52:58.372Z,3.60
2023-05-14T17:55:25.940Z,3.80
2023-05-14T17:57:53.344Z,5.30
2023-05-14T18:00:20.684Z,3.80
2023-05-14T18:02:47.873Z,3.90
2023-05-14T18:05:15.447Z,3.30
2023-05-14T18:07:42.648Z,3.90
2023-05-14T18:10:09.707Z,4.00
2023-05-14T18:12:40.909Z,3.90
2023-05-14T18:15:08.272Z,4.20
2023-05-14T18:17:35.901Z,4.10
2023-05-14T18:20:03.375Z,3.50
2023-05-14T18:22:30.730Z,4.00
2023-05-14T18:24:57.960Z,4.20
2023-05-14T18:27:25.079Z,4.00
2023-05-14T18:29:52.851Z,3.90
2023-05-14T18:32:21.259Z,6.10
2023-05-14T18:34:48.562Z,5.80
2023-05-14T18:37:15.546Z,10.40
2023-05-14T18:39:42.593Z,9.00
2023-05-14T18:42:10.878Z,7.70
2023-05-14T18:44:41.408Z,6.90
2023-05-14T18:47:08.494Z,7.10
2023-05-14T18:49:38.660Z,7.20
2023-05-14T18:52:06.699Z,9.50
2023-05-14T18:54:33.753Z,7.30
2023-05-14T18:57:01.368Z,6.20
2023-05-14T18:59:28.377Z,5.40
2023-05-14T19:01:55.848Z,5.60
2023-05-14T19:04:22.945Z,5.10
2023-05-14T19:06:50.296Z,3.90
2023-05-14T19:09:21.114Z,4.50
2023-05-14T19:11:49.764Z,4.10
2023-05-14T19:14:16.829Z,4.40
2023-05-14T19:16:45.538Z,5.10
2023-05-14T19:19:12.809Z,5.40
2023-05-14T19:21:42.348Z,6.10
2023-05-14T19:24:16.084Z,6.20
2023-05-14T19:26:45.242Z,5.50
2023-05-14T19:29:12.303Z,5.30
2023-05-14T19:31:41.954Z,5.00
2023-05-14T19:34:09.062Z,4.90
2023-05-14T19:36:39.164Z,5.00
2023-05-14T19:39:06.207Z,5.00
2023-05-14T19:41:34.827Z,4.30
2023-05-14T19:44:01.994Z,4.40
2023-05-14T19:46:29.233Z,4.30
2023-05-14T19:48:56.273Z,4.40
2023-05-14T19:51:23.197Z,4.70
2023-05-14T19:53:50.274Z,4.60
2023-05-14T19:56:17.720Z,4.50
2023-05-14T19:58:44.746Z,5.00
2023-05-14T20:01:12.139Z,5.50
2023-05-14T20:03:39.343Z,10.00
2023-05-14T20:06:07.441Z,8.10
2023-05-14T20:08:34.459Z,8.00
2023-05-14T20:11:01.713Z,7.60
2023-05-14T20:13:31.929Z,7.20
2023-05-14T20:15:59.288Z,7.60
2023-05-14T20:18:26.388Z,5.50
2023-05-14T20:20:54.744Z,5.40
2023-05-14T20:23:21.871Z,5.40
2023-05-14T20:25:49.146Z,5.30
2023-05-14T20:28:16.282Z,4.10
2023-05-14T20:30:43.352Z,4.40
2023-05-14T20:33:10.479Z,3.90
2023-05-14T20:35:38.646Z,4.10
2023-05-14T20:38:06.156Z,4.10
2023-05-14T20:40:33.234Z,3.90
2023-05-14T20:43:00.584Z,4.40
2023-05-14T20:45:27.922Z,4.60
2023-05-14T20:47:55.226Z,4.70
2023-05-14T20:50:23.162Z,4.70
2023-05-14T20:52:50.248Z,5.30
2023-05-14T20:55:18.124Z,4.50
2023-05-14T20:57:45.251Z,5.30
2023-05-14T21:00:13.287Z,6.70
2023-05-14T21:02:40.823Z,6.70
2023-05-14T21:05:07.958Z,5.30
2023-05-14T21:07:36.592Z,5.50
2023-05-14T21:10:04.222Z,5.70
2023-05-14T21:12:32.066Z,4.90
2023-05-14T21:14:59.154Z,5.40
2023-05-14T21:17:26.174Z,5.80
2023-05-14T21:19:53.157Z,5.00
2023-05-14T21:22:20.115Z,5.50
2023-05-14T21:24:47.081Z,4.80
2023-05-14T21:27:14.314Z,7.70
2023-05-14T21:29:41.452Z,8.20
2023-05-14T21:32:08.899Z,8.80
2023-05-14T21:34:35.989Z,7.40
2023-05-14T21:37:03.410Z,5.30
2023-05-14T21:39:31.070Z,5.00
2023-05-14T21:41:58.053Z,6.60
2023-05-14T21:44:25.041Z,5.80
2023-05-14T21:46:52.315Z,5.00
2023-05-14T21:49:19.232Z,5.10
2023-05-14T21:51:46.727Z,5.60
2023-05-14T21:54:14.221Z,6.20
2023-05-14T21:56:41.307Z,7.80
2023-05-14T21:59:08.509Z,5.80
2023-05-14T22:01:50.583Z,6.10
2023-05-14T22:04:22.986Z,6.30
2023-05-14T22:06:50.030Z,6.20
2023-05-14T22:09:16.957Z,6.30
2023-05-14T22:11:44.136Z,5.50
2023-05-14T22:14:11.353Z,4.70
2023-05-14T22:16:38.436Z,3.90
2023-05-14T22:19:06.661Z,4.20
2023-05-14T22:21:33.910Z,4.40
2023-05-14T22:24:01.027Z,4.20
2023-05-14T22:26:28.235Z,4.50
2023-05-14T22:28:57.629Z,4.30
2023-05-14T22:31:25.140Z,4.70
2023-05-14T22:33:53.167Z,5.60
2023-05-14T22:36:20.572Z,5.10
2023-05-14T22:38:47.513Z,5.50
2023-05-14T22:41:17.599Z,5.10
2023-05-14T22:43:44.938Z,4.70
2023-05-14T22:46:12.281Z,5.10
2023-05-14T22:48:39.678Z,4.60
2023-05-14T22:51:07.405Z,4.90
2023-05-14T22:53:34.773Z,4.70
2023-05-14T22:56:02.083Z,4.70
2023-05-14T22:58:29.387Z,4.30
2023-05-14T23:00:57.060Z,4.20
2023-05-14T23:03:24.087Z,4.30
2023-05-14T23:05:52.135Z,4.10
2023-05-14T23:08:19.652Z,3.90
2023-05-14T23:10:46.621Z,4.10
2023-05-14T23:13:13.656Z,4.10
2023-05-14T23:15:40.635Z,3.70
2023-05-14T23:18:07.933Z,3.90
2023-05-14T23:20:35.128Z,3.80
2023-05-14T23:23:02.725Z,4.40
2023-05-14T23:25:29.833Z,3.70
2023-05-14T23:27:56.892Z,4.40
2023-05-14T23:30:24.137Z,3.90
2023-05-14T23:32:51.402Z,4.00
2023-05-14T23:35:18.428Z,3.70
2023-05-14T23:37:47.484Z,4.10
2023-05-14T23:40:15.789Z,3.90
2023-05-14T23:42:43.569Z,4.00
2023-05-14T23:45:12.551Z,3.90
2023-05-14T23:47:40.562Z,4.00
2023-05-14T23:50:07.785Z,4.00
2023-05-14T23:52:34.868Z,3.90
2023-05-14T23:55:02.008Z,3.70
2023-05-14T23:57:29.097Z,3.60
2023-05-14T23:59:56.218Z,3.60
